createdAt,value
2023-04-27T00:01:55.887Z,3.40
2023-04-27T00:04:23.163Z,3.40
2023-04-27T00:06:50.635Z,3.40
2023-04-27T00:09:17.764Z,3.30
2023-04-27T00:11:44.578Z,3.30
2023-04-27T00:14:11.396Z,3.40
2023-04-27T00:16:38.244Z,3.40
2023-04-27T00:19:05.174Z,3.40
2023-04-27T00:21:32.073Z,3.50
2023-04-27T00:23:58.895Z,3.40
2023-04-27T00:26:26.866Z,3.40
2023-04-27T00:28:53.751Z,3.30
2023-04-27T00:31:20.901Z,3.30
2023-04-27T00:33:47.796Z,3.30
2023-04-27T00:36:14.612Z,3.20
2023-04-27T00:38:41.598Z,3.10
2023-04-27T00:41:08.639Z,3.00
2023-04-27T00:43:45.904Z,3.00
2023-04-27T00:46:14.707Z,2.90
2023-04-27T00:48:42.127Z,2.90
2023-04-27T00:51:09.134Z,2.90
2023-04-27T00:53:37.402Z,2.90
2023-04-27T00:56:08.022Z,3.00
2023-04-27T00:58:34.958Z,2.90
2023-04-27T01:01:02.270Z,3.00
2023-04-27T01:03:30.750Z,2.90
2023-04-27T01:06:01.390Z,2.90
2023-04-27T01:08:29.492Z,2.90
2023-04-27T01:10:56.585Z,2.90
2023-04-27T01:13:23.616Z,2.90
2023-04-27T01:15:50.588Z,2.90
2023-04-27T01:18:17.877Z,2.90
2023-04-27T01:20:45.047Z,2.90
2023-04-27T01:23:17.243Z,3.00
2023-04-27T01:25:44.598Z,2.90
2023-04-27T01:28:11.966Z,2.80
2023-04-27T01:30:38.837Z,2.80
2023-04-27T01:33:05.753Z,2.80
2023-04-27T01:35:32.643Z,2.80
2023-04-27T01:37:59.734Z,2.80
2023-04-27T01:40:26.608Z,2.70
2023-04-27T01:42:53.390Z,2.80
2023-04-27T01:45:20.293Z,2.80
2023-04-27T01:47:48.665Z,2.80
2023-04-27T01:50:15.624Z,2.80
2023-04-27T01:52:42.463Z,2.90
2023-04-27T01:55:09.543Z,2.90
2023-04-27T01:57:36.488Z,2.90
2023-04-27T02:00:05.337Z,2.80
2023-04-27T02:02:32.299Z,2.80
2023-04-27T02:04:59.251Z,2.80
2023-04-27T02:07:26.241Z,2.80
2023-04-27T02:09:53.198Z,2.70
2023-04-27T02:12:19.968Z,2.70
2023-04-27T02:14:46.773Z,2.70
2023-04-27T02:17:13.584Z,2.70
2023-04-27T02:19:40.645Z,2.70
2023-04-27T02:22:07.460Z,2.60
2023-04-27T02:24:36.537Z,2.60
2023-04-27T02:27:03.790Z,2.60
2023-04-27T02:29:31.728Z,2.60
2023-04-27T02:31:59.252Z,2.60
2023-04-27T02:34:26.223Z,2.60
2023-04-27T02:36:53.126Z,2.60
2023-04-27T02:39:20.010Z,2.60
2023-04-27T02:41:46.914Z,2.60
2023-04-27T02:44:13.807Z,2.60
2023-04-27T02:46:40.639Z,2.70
2023-04-27T02:49:07.695Z,2.70
2023-04-27T02:51:34.675Z,2.70
2023-04-27T02:54:01.518Z,2.70
2023-04-27T02:56:28.541Z,2.70
2023-04-27T02:58:56.284Z,2.70
2023-04-27T03:01:23.467Z,2.70
2023-04-27T03:03:50.711Z,2.70
2023-04-27T03:06:17.680Z,2.70
2023-04-27T03:08:44.570Z,2.60
2023-04-27T03:11:12.535Z,2.60
2023-04-27T03:13:42.282Z,2.60
2023-04-27T03:16:13.074Z,2.50
2023-04-27T03:18:40.516Z,2.50
2023-04-27T03:21:16.851Z,2.50
2023-04-27T03:23:43.844Z,2.60
2023-04-27T03:26:12.434Z,2.60
2023-04-27T03:28:39.801Z,2.60
2023-04-27T03:31:07.598Z,2.50
2023-04-27T03:33:34.900Z,2.50
2023-04-27T03:36:02.409Z,2.50
2023-04-27T03:38:29.324Z,2.60
2023-04-27T03:40:56.327Z,2.60
2023-04-27T03:43:24.247Z,2.60
2023-04-27T03:45:51.249Z,2.60
2023-04-27T03:48:19.067Z,2.60
2023-04-27T03:50:46.900Z,2.60
2023-04-27T03:53:14.327Z,2.50
2023-04-27T03:55:43.209Z,2.40
2023-04-27T03:58:10.740Z,2.40
2023-04-27T04:00:38.624Z,2.40
2023-04-27T04:03:06.895Z,2.40
2023-04-27T04:05:33.936Z,2.40
2023-04-27T04:08:00.913Z,2.30
2023-04-27T04:10:27.898Z,2.40
2023-04-27T04:12:54.772Z,2.30
2023-04-27T04:15:21.659Z,2.30
2023-04-27T04:17:49.400Z,2.30
2023-04-27T04:20:19.051Z,2.30
2023-04-27T04:22:45.955Z,2.30
2023-04-27T04:25:13.151Z,2.40
2023-04-27T04:27:40.970Z,2.40
2023-04-27T04:30:08.422Z,2.40
2023-04-27T04:32:37.935Z,2.40
2023-04-27T04:35:08.004Z,2.40
2023-04-27T04:37:35.518Z,2.40
2023-04-27T04:40:10.663Z,2.40
2023-04-27T04:42:38.087Z,2.40
2023-04-27T04:45:05.754Z,2.50
2023-04-27T04:47:32.719Z,2.60
2023-04-27T04:50:00.324Z,2.60
2023-04-27T04:52:27.247Z,2.60
2023-04-27T04:54:54.310Z,2.70
2023-04-27T04:57:21.402Z,2.80
2023-04-27T04:59:48.305Z,2.80
2023-04-27T05:02:15.220Z,2.90
2023-04-27T05:04:42.230Z,3.00
2023-04-27T05:07:12.575Z,3.10
2023-04-27T05:09:41.357Z,3.10
2023-04-27T05:12:08.309Z,3.20
2023-04-27T05:14:35.752Z,3.20
2023-04-27T05:17:02.591Z,3.30
2023-04-27T05:19:31.162Z,3.40
2023-04-27T05:21:58.799Z,3.40
2023-04-27T05:24:26.898Z,3.50
2023-04-27T05:26:53.996Z,3.60
2023-04-27T05:29:21.886Z,3.60
2023-04-27T05:31:49.167Z,3.80
2023-04-27T05:34:16.297Z,3.90
2023-04-27T05:36:43.269Z,4.10
2023-04-27T05:39:10.445Z,4.30
2023-04-27T05:41:37.313Z,4.50
2023-04-27T05:44:04.229Z,4.80
2023-04-27T05:46:31.221Z,5.00
2023-04-27T05:48:58.194Z,5.20
2023-04-27T05:51:25.062Z,5.20
2023-04-27T05:53:55.191Z,5.20
2023-04-27T05:56:22.685Z,5.30
2023-04-27T05:58:49.579Z,5.30
2023-04-27T06:01:16.692Z,5.20
2023-04-27T06:03:43.876Z,5.30
2023-04-27T06:06:11.010Z,5.50
2023-04-27T06:08:39.470Z,5.60
2023-04-27T06:11:06.740Z,5.80
2023-04-27T06:13:33.903Z,6.30
2023-04-27T06:16:01.737Z,6.60
2023-04-27T06:18:28.631Z,7.20
2023-04-27T06:21:00.264Z,7.90
2023-04-27T06:23:27.632Z,8.70
2023-04-27T06:25:54.517Z,9.30
2023-04-27T06:28:21.380Z,9.70
2023-04-27T06:30:48.300Z,10.00
2023-04-27T06:33:15.323Z,10.40
2023-04-27T06:35:43.212Z,10.70
2023-04-27T06:38:11.100Z,11.00
2023-04-27T06:40:37.989Z,11.10
2023-04-27T06:43:04.894Z,11.20
2023-04-27T06:45:31.786Z,11.40
2023-04-27T06:47:58.755Z,11.70
2023-04-27T06:50:25.664Z,12.00
2023-04-27T06:52:52.540Z,12.10
2023-04-27T06:55:19.446Z,12.70
2023-04-27T06:57:46.384Z,13.00
2023-04-27T07:00:14.777Z,13.60
2023-04-27T07:02:41.721Z,13.70
2023-04-27T07:05:08.778Z,14.10
2023-04-27T07:07:35.676Z,14.00
2023-04-27T07:10:02.781Z,14.00
2023-04-27T07:12:30.094Z,14.00
2023-04-27T07:14:57.500Z,14.20
2023-04-27T07:17:24.415Z,14.40
2023-04-27T07:19:51.389Z,14.90
2023-04-27T07:22:18.334Z,14.80
2023-04-27T07:24:45.267Z,14.50
2023-04-27T07:27:12.104Z,14.30
2023-04-27T07:29:39.507Z,14.40
2023-04-27T07:32:08.032Z,14.50
2023-04-27T07:34:49.179Z,14.50
2023-04-27T07:37:20.559Z,15.20
2023-04-27T07:39:50.232Z,15.10
2023-04-27T07:42:17.325Z,15.30
2023-04-27T07:44:44.456Z,15.10
2023-04-27T07:47:11.313Z,15.20
2023-04-27T07:49:38.362Z,15.40
2023-04-27T07:52:05.526Z,14.70
2023-04-27T07:54:32.423Z,14.20
2023-04-27T07:56:59.282Z,14.90
2023-04-27T07:59:29.694Z,15.30
2023-04-27T08:02:07.157Z,15.40
2023-04-27T08:04:38.232Z,15.10
2023-04-27T08:07:06.146Z,15.50
2023-04-27T08:09:33.755Z,16.00
2023-04-27T08:12:02.668Z,15.40
2023-04-27T08:14:29.670Z,14.70
2023-04-27T08:16:56.729Z,15.50
2023-04-27T08:19:23.923Z,15.80
2023-04-27T08:21:50.984Z,15.90
2023-04-27T08:24:18.004Z,16.00
2023-04-27T08:26:44.972Z,16.40
2023-04-27T08:29:23.676Z,15.10
2023-04-27T08:31:56.286Z,14.80
2023-04-27T08:34:23.704Z,15.20
2023-04-27T08:36:50.717Z,14.10
2023-04-27T08:39:18.393Z,13.60
2023-04-27T08:41:46.347Z,13.90
2023-04-27T08:44:13.401Z,14.70
2023-04-27T08:46:41.050Z,15.60
2023-04-27T08:49:08.196Z,15.30
2023-04-27T08:51:35.352Z,14.80
2023-04-27T08:54:02.571Z,14.30
2023-04-27T08:56:30.622Z,13.90
2023-04-27T08:58:58.930Z,13.30
2023-04-27T09:01:27.642Z,12.80
2023-04-27T09:04:02.420Z,13.30
2023-04-27T09:06:34.085Z,13.60
2023-04-27T09:09:01.726Z,14.50
2023-04-27T09:11:38.072Z,14.70
2023-04-27T09:14:18.792Z,14.50
2023-04-27T09:16:45.766Z,13.80
2023-04-27T09:19:13.113Z,13.60
2023-04-27T09:21:40.383Z,13.40
2023-04-27T09:24:12.790Z,14.20
2023-04-27T09:26:42.692Z,14.50
2023-04-27T09:29:09.660Z,15.50
2023-04-27T09:31:36.948Z,15.70
2023-04-27T09:34:04.132Z,16.10
2023-04-27T09:36:33.151Z,15.80
2023-04-27T09:39:05.126Z,15.30
2023-04-27T09:41:33.397Z,16.00
2023-04-27T09:44:00.987Z,15.70
2023-04-27T09:46:29.934Z,14.80
2023-04-27T09:48:57.574Z,14.10
2023-04-27T09:51:24.632Z,13.80
2023-04-27T09:53:58.280Z,14.50
2023-04-27T09:56:50.214Z,15.20
2023-04-27T09:59:58.538Z,15.40
2023-04-27T10:02:29.555Z,14.70
2023-04-27T10:05:31.511Z,13.60
2023-04-27T10:07:58.548Z,13.20
2023-04-27T10:10:25.672Z,13.20
2023-04-27T10:13:01.798Z,13.10
2023-04-27T10:15:30.037Z,13.10
2023-04-27T10:18:03.322Z,13.10
2023-04-27T10:20:36.732Z,13.10
2023-04-27T10:23:04.514Z,12.90
2023-04-27T10:25:40.462Z,13.00
2023-04-27T10:28:10.452Z,12.80
2023-04-27T10:30:38.927Z,12.70
2023-04-27T10:33:08.703Z,12.80
2023-04-27T10:35:39.886Z,12.90
2023-04-27T10:38:18.882Z,13.20
2023-04-27T10:40:54.462Z,13.10
2023-04-27T10:43:26.605Z,13.10
2023-04-27T10:45:53.712Z,12.70
2023-04-27T10:48:20.833Z,12.40
2023-04-27T10:50:47.962Z,12.10
2023-04-27T10:53:15.846Z,11.60
2023-04-27T10:55:42.872Z,11.60
2023-04-27T10:58:09.725Z,11.50
2023-04-27T11:00:43.856Z,11.30
2023-04-27T11:03:19.716Z,11.20
2023-04-27T11:05:49.604Z,11.30
2023-04-27T11:08:18.759Z,11.10
2023-04-27T11:10:47.474Z,11.20
2023-04-27T11:13:20.227Z,11.40
2023-04-27T11:15:49.941Z,11.50
2023-04-27T11:18:18.944Z,11.70
2023-04-27T11:20:49.677Z,11.80
2023-04-27T11:23:25.040Z,11.60
2023-04-27T11:25:52.496Z,11.70
2023-04-27T11:28:24.160Z,11.90
2023-04-27T11:30:58.647Z,12.10
2023-04-27T11:33:26.443Z,12.60
2023-04-27T11:35:53.776Z,12.70
2023-04-27T11:38:21.877Z,12.80
2023-04-27T11:41:06.765Z,12.60
2023-04-27T11:43:34.460Z,12.40
2023-04-27T11:46:06.039Z,12.40
2023-04-27T11:48:33.067Z,12.30
2023-04-27T11:51:01.439Z,12.20
2023-04-27T11:53:33.968Z,12.00
2023-04-27T11:56:06.264Z,11.70
2023-04-27T11:58:35.144Z,12.10
2023-04-27T12:01:03.422Z,12.10
2023-04-27T12:03:30.917Z,12.30
2023-04-27T12:06:04.158Z,12.20
2023-04-27T12:08:38.931Z,12.50
2023-04-27T12:11:05.867Z,12.90
2023-04-27T12:13:32.689Z,13.30
2023-04-27T12:16:01.021Z,13.20
2023-04-27T12:18:28.001Z,13.00
2023-04-27T12:20:54.821Z,12.70
2023-04-27T12:23:21.695Z,12.60
2023-04-27T12:25:49.252Z,12.60
2023-04-27T12:28:19.150Z,12.80
2023-04-27T12:30:46.270Z,12.60
2023-04-27T12:33:13.460Z,12.50
2023-04-27T12:35:40.388Z,12.50
2023-04-27T12:38:07.491Z,12.40
2023-04-27T12:40:34.370Z,12.50
2023-04-27T12:43:01.595Z,13.10
2023-04-27T12:45:28.537Z,13.60
2023-04-27T12:48:03.273Z,13.90
2023-04-27T12:50:32.460Z,13.80
2023-04-27T12:53:00.208Z,13.80
2023-04-27T12:55:33.793Z,13.60
2023-04-27T12:58:02.520Z,13.00
2023-04-27T13:00:29.934Z,12.60
2023-04-27T13:02:57.392Z,12.40
2023-04-27T13:05:24.576Z,12.50
2023-04-27T13:07:51.847Z,12.80
2023-04-27T13:10:18.778Z,12.80
2023-04-27T13:12:45.908Z,12.80
2023-04-27T13:15:12.810Z,12.70
2023-04-27T13:17:41.007Z,12.70
2023-04-27T13:20:09.895Z,12.20
2023-04-27T13:22:36.795Z,12.00
2023-04-27T13:25:04.971Z,11.70
2023-04-27T13:27:31.797Z,11.60
2023-04-27T13:29:58.604Z,11.50
2023-04-27T13:32:25.572Z,11.50
2023-04-27T13:34:52.458Z,11.40
2023-04-27T13:37:19.311Z,11.30
2023-04-27T13:39:46.367Z,11.20
2023-04-27T13:42:13.206Z,11.20
2023-04-27T13:44:39.992Z,10.90
2023-04-27T13:47:08.071Z,10.70
2023-04-27T13:49:35.087Z,10.60
2023-04-27T13:52:01.937Z,10.40
2023-04-27T13:54:29.117Z,10.30
2023-04-27T13:56:56.281Z,10.00
2023-04-27T13:59:23.229Z,9.80
2023-04-27T14:01:50.386Z,9.70
2023-04-27T14:04:17.264Z,9.60
2023-04-27T14:06:45.393Z,9.60
2023-04-27T14:09:12.350Z,9.40
2023-04-27T14:11:52.431Z,9.30
2023-04-27T14:14:22.708Z,9.20
2023-04-27T14:16:51.316Z,9.30
2023-04-27T14:19:20.309Z,9.30
2023-04-27T14:21:49.184Z,9.40
2023-04-27T14:24:16.197Z,9.60
2023-04-27T14:26:44.390Z,9.70
2023-04-27T14:29:11.827Z,9.80
2023-04-27T14:31:40.013Z,10.00
2023-04-27T14:34:08.103Z,10.00
2023-04-27T14:36:35.055Z,9.80
2023-04-27T14:39:02.016Z,9.80
2023-04-27T14:41:28.886Z,9.90
2023-04-27T14:43:55.978Z,10.00
2023-04-27T14:46:23.128Z,10.00
2023-04-27T14:48:51.439Z,10.10
2023-04-27T14:51:18.614Z,10.20
2023-04-27T14:53:45.844Z,10.20
2023-04-27T14:56:12.690Z,10.00
2023-04-27T14:58:39.513Z,10.00
2023-04-27T15:01:07.568Z,10.00
2023-04-27T15:03:34.684Z,10.10
2023-04-27T15:06:02.402Z,10.10
2023-04-27T15:08:31.296Z,10.20
2023-04-27T15:11:00.088Z,10.10
2023-04-27T15:13:27.660Z,10.10
2023-04-27T15:16:04.888Z,10.30
2023-04-27T15:18:32.083Z,10.40
2023-04-27T15:20:59.975Z,10.50
2023-04-27T15:23:27.688Z,10.60
2023-04-27T15:25:56.372Z,10.70
2023-04-27T15:28:23.546Z,10.70
2023-04-27T15:30:50.684Z,10.80
2023-04-27T15:33:18.048Z,10.80
2023-04-27T15:35:44.955Z,10.70
2023-04-27T15:38:14.773Z,10.60
2023-04-27T15:40:41.683Z,10.70
2023-04-27T15:43:08.561Z,10.60
2023-04-27T15:45:35.463Z,10.60
2023-04-27T15:48:02.385Z,10.60
2023-04-27T15:50:29.331Z,10.70
2023-04-27T15:52:56.351Z,10.60
2023-04-27T15:55:23.369Z,10.70
2023-04-27T15:57:50.594Z,10.60
2023-04-27T16:00:18.973Z,10.60
2023-04-27T16:02:47.073Z,10.50
2023-04-27T16:05:14.771Z,10.30
2023-04-27T16:07:44.034Z,10.30
2023-04-27T16:10:11.791Z,10.30
2023-04-27T16:12:38.875Z,10.30
2023-04-27T16:15:08.562Z,10.40
2023-04-27T16:17:37.299Z,10.60
2023-04-27T16:20:08.037Z,10.70
2023-04-27T16:22:35.416Z,10.80
2023-04-27T16:25:03.156Z,10.80
2023-04-27T16:27:30.138Z,10.70
2023-04-27T16:29:57.047Z,10.70
2023-04-27T16:32:24.153Z,10.60
2023-04-27T16:34:51.102Z,10.60
2023-04-27T16:37:18.060Z,10.50
2023-04-27T16:39:45.301Z,10.50
2023-04-27T16:42:16.268Z,10.50
2023-04-27T16:44:43.105Z,10.40
2023-04-27T16:47:09.936Z,10.40
2023-04-27T16:49:37.778Z,10.40
2023-04-27T16:52:05.351Z,10.30
2023-04-27T16:54:32.220Z,10.30
2023-04-27T16:56:59.058Z,10.50
2023-04-27T16:59:25.948Z,10.70
2023-04-27T17:01:52.947Z,10.90
2023-04-27T17:04:20.166Z,10.80
2023-04-27T17:06:48.404Z,10.70
2023-04-27T17:09:15.549Z,10.60
2023-04-27T17:11:42.544Z,10.50
2023-04-27T17:14:09.475Z,10.50
2023-04-27T17:16:36.321Z,10.50
2023-04-27T17:19:03.862Z,10.30
2023-04-27T17:21:32.001Z,10.20
2023-04-27T17:23:59.058Z,10.10
2023-04-27T17:26:26.060Z,10.00
2023-04-27T17:28:53.039Z,9.80
2023-04-27T17:31:20.013Z,9.80
2023-04-27T17:33:46.851Z,9.90
2023-04-27T17:36:14.978Z,10.00
2023-04-27T17:38:41.991Z,10.00
2023-04-27T17:41:08.864Z,9.90
2023-04-27T17:43:37.634Z,9.80
2023-04-27T17:46:11.833Z,9.60
2023-04-27T17:48:38.859Z,9.50
2023-04-27T17:51:05.778Z,9.40
2023-04-27T17:53:32.872Z,9.20
2023-04-27T17:55:59.774Z,9.20
2023-04-27T17:58:28.103Z,9.10
2023-04-27T18:00:55.089Z,9.10
2023-04-27T18:03:22.417Z,9.00
2023-04-27T18:05:49.381Z,8.90
2023-04-27T18:08:16.478Z,8.80
2023-04-27T18:10:43.385Z,8.70
2023-04-27T18:13:10.392Z,8.70
2023-04-27T18:15:37.409Z,8.80
2023-04-27T18:18:04.461Z,8.80
2023-04-27T18:20:31.306Z,8.70
2023-04-27T18:22:58.179Z,8.60
2023-04-27T18:25:25.471Z,8.60
2023-04-27T18:27:55.482Z,8.50
2023-04-27T18:30:22.986Z,8.50
2023-04-27T18:32:49.941Z,8.30
2023-04-27T18:35:16.885Z,8.20
2023-04-27T18:37:48.125Z,8.00
2023-04-27T18:40:20.694Z,7.90
2023-04-27T18:42:47.901Z,7.80
2023-04-27T18:45:16.383Z,7.70
2023-04-27T18:47:43.303Z,7.60
2023-04-27T18:50:13.113Z,7.50
2023-04-27T18:52:39.985Z,7.40
2023-04-27T18:55:08.984Z,7.20
2023-04-27T18:57:36.051Z,7.20
2023-04-27T19:00:05.833Z,7.10
2023-04-27T19:02:33.171Z,7.00
2023-04-27T19:05:11.166Z,6.80
2023-04-27T19:07:39.579Z,6.80
2023-04-27T19:10:07.298Z,6.70
2023-04-27T19:12:34.173Z,6.60
2023-04-27T19:15:01.035Z,6.60
2023-04-27T19:17:28.079Z,6.60
2023-04-27T19:19:54.993Z,6.50
2023-04-27T19:22:21.980Z,6.40
2023-04-27T19:24:48.837Z,6.30
2023-04-27T19:27:16.282Z,6.30
2023-04-27T19:29:52.288Z,6.20
2023-04-27T19:32:19.875Z,6.10
2023-04-27T19:34:47.251Z,6.10
2023-04-27T19:37:14.394Z,6.10
2023-04-27T19:39:41.348Z,6.10
2023-04-27T19:42:08.329Z,6.00
2023-04-27T19:44:35.217Z,6.00
2023-04-27T19:47:02.129Z,6.00
2023-04-27T19:49:32.774Z,5.90
2023-04-27T19:52:02.894Z,5.80
2023-04-27T19:54:29.827Z,5.70
2023-04-27T19:56:56.966Z,5.60
2023-04-27T19:59:24.124Z,5.60
2023-04-27T20:01:51.199Z,5.50
2023-04-27T20:04:19.081Z,5.50
2023-04-27T20:06:47.265Z,5.40
2023-04-27T20:09:14.188Z,5.40
2023-04-27T20:11:41.144Z,5.40
2023-04-27T20:14:08.027Z,5.30
2023-04-27T20:16:34.981Z,5.20
2023-04-27T20:19:01.885Z,5.10
2023-04-27T20:21:29.331Z,5.10
2023-04-27T20:23:56.346Z,5.00
2023-04-27T20:26:24.419Z,5.00
2023-04-27T20:28:51.393Z,4.90
2023-04-27T20:31:18.274Z,4.80
2023-04-27T20:33:45.332Z,4.80
2023-04-27T20:36:17.210Z,4.70
2023-04-27T20:38:45.436Z,4.70
2023-04-27T20:41:12.513Z,4.70
2023-04-27T20:43:40.025Z,4.60
2023-04-27T20:46:07.962Z,4.60
2023-04-27T20:48:34.945Z,4.60
2023-04-27T20:51:02.226Z,4.50
2023-04-27T20:53:29.188Z,4.50
2023-04-27T20:55:56.970Z,4.50
2023-04-27T20:58:24.047Z,4.40
2023-04-27T21:00:51.329Z,4.30
2023-04-27T21:03:18.402Z,4.30
2023-04-27T21:05:45.923Z,4.30
2023-04-27T21:08:12.807Z,4.30
2023-04-27T21:10:39.653Z,4.30
2023-04-27T21:13:07.086Z,4.20
2023-04-27T21:15:34.008Z,4.10
2023-04-27T21:18:00.900Z,4.10
2023-04-27T21:20:27.951Z,4.10
2023-04-27T21:22:54.747Z,4.10
2023-04-27T21:25:23.588Z,4.00
2023-04-27T21:27:50.958Z,4.00
2023-04-27T21:30:17.812Z,3.90
2023-04-27T21:32:44.916Z,3.90
2023-04-27T21:35:11.999Z,3.90
2023-04-27T21:37:38.942Z,3.80
2023-04-27T21:40:06.468Z,3.90
2023-04-27T21:42:33.281Z,3.70
2023-04-27T21:45:00.245Z,3.80
2023-04-27T21:47:27.293Z,3.80
2023-04-27T21:49:54.226Z,3.70
2023-04-27T21:52:21.666Z,3.60
2023-04-27T21:54:48.673Z,3.60
2023-04-27T21:57:16.901Z,3.50
2023-04-27T21:59:44.769Z,3.50
2023-04-27T22:02:11.630Z,3.50
2023-04-27T22:04:39.565Z,3.50
2023-04-27T22:07:08.076Z,3.50
2023-04-27T22:09:38.395Z,3.50
2023-04-27T22:12:05.844Z,3.40
2023-04-27T22:14:32.809Z,3.40
2023-04-27T22:17:01.055Z,3.30
2023-04-27T22:19:28.761Z,3.20
2023-04-27T22:21:56.517Z,3.30
2023-04-27T22:24:23.850Z,3.20
2023-04-27T22:26:50.862Z,3.30
2023-04-27T22:29:17.973Z,3.20
2023-04-27T22:31:45.299Z,3.20
2023-04-27T22:34:13.476Z,3.10
2023-04-27T22:36:40.594Z,3.10
2023-04-27T22:39:08.133Z,3.20
2023-04-27T22:41:35.034Z,3.10
2023-04-27T22:44:01.929Z,3.00
2023-04-27T22:46:28.743Z,3.00
2023-04-27T22:48:55.588Z,3.00
2023-04-27T22:51:23.718Z,3.00
2023-04-27T22:53:50.583Z,3.00
2023-04-27T22:56:17.462Z,3.10
2023-04-27T22:58:44.369Z,3.10
2023-04-27T23:01:11.682Z,3.10
2023-04-27T23:03:39.103Z,3.10
2023-04-27T23:06:07.406Z,3.10
2023-04-27T23:08:34.258Z,3.00
2023-04-27T23:11:02.830Z,3.00
2023-04-27T23:13:29.716Z,2.90
2023-04-27T23:15:56.764Z,2.90
2023-04-27T23:18:23.681Z,2.90
2023-04-27T23:20:56.445Z,2.90
2023-04-27T23:23:23.319Z,2.90
2023-04-27T23:25:50.204Z,2.90
2023-04-27T23:28:17.154Z,2.90
2023-04-27T23:30:44.084Z,2.80
2023-04-27T23:33:10.960Z,2.90
2023-04-27T23:35:38.348Z,2.80
2023-04-27T23:38:05.286Z,2.90
2023-04-27T23:40:32.171Z,2.80
2023-04-27T23:42:59.014Z,2.80
2023-04-27T23:45:25.901Z,2.80
2023-04-27T23:47:52.850Z,2.80
2023-04-27T23:50:19.876Z,2.80
2023-04-27T23:52:46.708Z,2.80
2023-04-27T23:55:13.559Z,2.80
2023-04-27T23:57:40.385Z,2.80
